Archival Weather

Joint Base Andrews

Camp Springs, Maryland (KADW)

Report from: Tuesday, February 27, 2024 8:55 AM EST
Current time: Wednesday, May 29, 2024 8:52 PM EDT

Current weather – Weather history – Daily summaries
Weather forecast

Temperature13.4°C (56.1°F)
Dew point3.7°C (38.7°F)
Winds 9 kts (4.6 m/s, 10.4 mph) South-Southwest (200°)
Visibility10 mi. (16.1 km)
Clouds Sky clear
Altimeter29.93 in.Hg (1014 mB)
Relative humidity52 %
Density altitude-104 ft. (-32 m)
Sea-level pressure101.4 kPa (1014 mB, 29.95 in.Hg)
Remarks Fully automated report
System requires maintenance
Automated weather observing station with precipitation discriminator
Flight conditions Visual Meteorological Conditions
Raw dataKADW 271355Z AUTO 20009KT 10SM CLR 13/04 A2993 RMK AO2 SLP142 T01340037 $
An error has occurred. This application may no longer respond until reloaded. Reload 🗙